sensor_id;sensor_type;location;lat;lon;timestamp;noise_LAeq;noise_LA_min;noise_LA_max;noise_LA01;noise_LA95
69609;Laerm;56815;52.320;4.858;2023-05-16T00:00:02;33.75;31.95;35.61;;
69609;Laerm;56815;52.320;4.858;2023-05-16T00:00:16;33.98;31.38;36.48;;
69609;Laerm;56815;52.320;4.858;2023-05-16T00:00:26;33.72;31.56;37.88;;
69609;Laerm;56815;52.320;4.858;2023-05-16T00:00:37;34.20;31.64;36.76;;
69609;Laerm;56815;52.320;4.858;2023-05-16T00:00:48;34.50;32.50;37.24;;
69609;Laerm;56815;52.320;4.858;2023-05-16T00:00:59;34.66;32.53;40.97;;
69609;Laerm;56815;52.320;4.858;2023-05-16T00:01:10;34.58;32.44;40.60;;
69609;Laerm;56815;52.320;4.858;2023-05-16T00:01:21;35.37;33.05;38.87;;
69609;Laerm;56815;52.320;4.858;2023-05-16T00:01:32;35.10;32.58;37.39;;
69609;Laerm;56815;52.320;4.858;2023-05-16T00:01:44;35.38;33.22;39.49;;
69609;Laerm;56815;52.320;4.858;2023-05-16T00:01:55;34.44;32.23;39.25;;
69609;Laerm;56815;52.320;4.858;2023-05-16T00:02:05;34.46;32.67;37.44;;
69609;Laerm;56815;52.320;4.858;2023-05-16T00:02:17;35.02;33.08;37.56;;
69609;Laerm;56815;52.320;4.858;2023-05-16T00:02:27;35.35;33.11;39.79;;
69609;Laerm;56815;52.320;4.858;2023-05-16T00:02:37;35.17;32.31;41.15;;
69609;Laerm;56815;52.320;4.858;2023-05-16T00:02:48;35.80;31.89;49.47;;
69609;Laerm;56815;52.320;4.858;2023-05-16T00:02:58;36.63;33.05;46.49;;
69609;Laerm;56815;52.320;4.858;2023-05-16T00:03:09;34.95;32.68;38.84;;
69609;Laerm;56815;52.320;4.858;2023-05-16T00:03:21;36.10;32.95;47.58;;
69609;Laerm;56815;52.320;4.858;2023-05-16T00:03:31;34.96;32.64;40.80;;
69609;Laerm;56815;52.320;4.858;2023-05-16T00:03:41;37.34;32.71;54.04;;
69609;Laerm;56815;52.320;4.858;2023-05-16T00:03:52;34.74;32.84;40.03;;
69609;Laerm;56815;52.320;4.858;2023-05-16T00:04:02;34.83;32.50;37.20;;
69609;Laerm;56815;52.320;4.858;2023-05-16T00:04:13;35.46;32.55;46.11;;
69609;Laerm;56815;52.320;4.858;2023-05-16T00:04:23;34.37;32.12;36.44;;
69609;Laerm;56815;52.320;4.858;2023-05-16T00:04:35;34.50;32.04;38.92;;
69609;Laerm;56815;52.320;4.858;2023-05-16T00:04:45;34.55;32.72;36.31;;
69609;Laerm;56815;52.320;4.858;2023-05-16T00:04:56;34.65;32.33;39.05;;
69609;Laerm;56815;52.320;4.858;2023-05-16T00:05:07;35.32;33.17;37.85;;
69609;Laerm;56815;52.320;4.858;2023-05-16T00:05:17;35.63;33.04;41.87;;
69609;Laerm;56815;52.320;4.858;2023-05-16T00:05:28;35.10;32.60;38.16;;
69609;Laerm;56815;52.320;4.858;2023-05-16T00:05:38;34.93;32.82;37.08;;
69609;Laerm;56815;52.320;4.858;2023-05-16T00:05:48;34.62;32.09;36.77;;
69609;Laerm;56815;52.320;4.858;2023-05-16T00:05:59;34.55;32.61;36.32;;
69609;Laerm;56815;52.320;4.858;2023-05-16T00:06:11;34.80;32.86;38.54;;
69609;Laerm;56815;52.320;4.858;2023-05-16T00:06:22;35.05;32.78;39.06;;
69609;Laerm;56815;52.320;4.858;2023-05-16T00:06:32;34.98;32.92;39.60;;
69609;Laerm;56815;52.320;4.858;2023-05-16T00:06:42;35.26;33.14;37.27;;
69609;Laerm;56815;52.320;4.858;2023-05-16T00:06:53;36.08;33.86;38.85;;
69609;Laerm;56815;52.320;4.858;2023-05-16T00:07:04;36.26;33.54;39.01;;
69609;Laerm;56815;52.320;4.858;2023-05-16T00:07:14;35.70;33.76;37.67;;
69609;Laerm;56815;52.320;4.858;2023-05-16T00:07:24;35.78;33.74;38.67;;
69609;Laerm;56815;52.320;4.858;2023-05-16T00:07:35;35.23;32.88;38.83;;
69609;Laerm;56815;52.320;4.858;2023-05-16T00:07:45;34.82;32.58;37.61;;
69609;Laerm;56815;52.320;4.858;2023-05-16T00:07:56;34.85;32.55;38.06;;
69609;Laerm;56815;52.320;4.858;2023-05-16T00:08:06;35.50;33.07;38.56;;
69609;Laerm;56815;52.320;4.858;2023-05-16T00:08:17;35.21;33.11;39.58;;
69609;Laerm;56815;52.320;4.858;2023-05-16T00:08:27;36.49;32.36;41.79;;
69609;Laerm;56815;52.320;4.858;2023-05-16T00:08:38;35.26;32.70;39.84;;
69609;Laerm;56815;52.320;4.858;2023-05-16T00:08:48;34.93;32.99;39.13;;
69609;Laerm;56815;52.320;4.858;2023-05-16T00:08:58;35.46;33.10;39.54;;
69609;Laerm;56815;52.320;4.858;2023-05-16T00:09:09;36.11;33.66;39.44;;
69609;Laerm;56815;52.320;4.858;2023-05-16T00:09:19;34.84;32.26;38.24;;
69609;Laerm;56815;52.320;4.858;2023-05-16T00:09:30;34.83;32.30;37.67;;
69609;Laerm;56815;52.320;4.858;2023-05-16T00:09:41;34.35;32.28;39.02;;
69609;Laerm;56815;52.320;4.858;2023-05-16T00:09:51;35.38;32.73;40.64;;
69609;Laerm;56815;52.320;4.858;2023-05-16T00:10:01;35.99;33.18;48.06;;
69609;Laerm;56815;52.320;4.858;2023-05-16T00:10:12;34.92;32.73;38.34;;
69609;Laerm;56815;52.320;4.858;2023-05-16T00:10:22;34.79;32.38;43.03;;
69609;Laerm;56815;52.320;4.858;2023-05-16T00:10:33;35.27;32.82;42.10;;
69609;Laerm;56815;52.320;4.858;2023-05-16T00:10:43;34.89;32.97;37.67;;
69609;Laerm;56815;52.320;4.858;2023-05-16T00:10:53;35.06;32.92;37.25;;
69609;Laerm;56815;52.320;4.858;2023-05-16T00:11:04;35.52;32.85;38.93;;
69609;Laerm;56815;52.320;4.858;2023-05-16T00:11:15;35.06;33.12;39.29;;
69609;Laerm;56815;52.320;4.858;2023-05-16T00:11:26;34.67;32.54;37.57;;
69609;Laerm;56815;52.320;4.858;2023-05-16T00:11:36;35.78;32.75;42.15;;
69609;Laerm;56815;52.320;4.858;2023-05-16T00:11:46;35.70;32.84;39.81;;
69609;Laerm;56815;52.320;4.858;2023-05-16T00:11:57;34.92;32.47;38.76;;
69609;Laerm;56815;52.320;4.858;2023-05-16T00:12:10;35.42;33.30;41.13;;
69609;Laerm;56815;52.320;4.858;2023-05-16T00:12:21;34.72;32.75;38.62;;
69609;Laerm;56815;52.320;4.858;2023-05-16T00:12:31;34.61;32.23;38.94;;
69609;Laerm;56815;52.320;4.858;2023-05-16T00:12:42;34.20;32.15;36.65;;
69609;Laerm;56815;52.320;4.858;2023-05-16T00:12:55;34.17;31.73;38.20;;
69609;Laerm;56815;52.320;4.858;2023-05-16T00:13:06;34.20;32.13;35.95;;
69609;Laerm;56815;52.320;4.858;2023-05-16T00:13:16;33.83;31.98;37.40;;
69609;Laerm;56815;52.320;4.858;2023-05-16T00:13:31;34.52;31.73;41.39;;
69609;Laerm;56815;52.320;4.858;2023-05-16T00:13:41;34.81;32.41;41.36;;
69609;Laerm;56815;52.320;4.858;2023-05-16T00:13:52;34.95;31.96;39.55;;
69609;Laerm;56815;52.320;4.858;2023-05-16T00:14:03;34.89;32.56;38.50;;
69609;Laerm;56815;52.320;4.858;2023-05-16T00:14:14;35.13;32.03;39.96;;
69609;Laerm;56815;52.320;4.858;2023-05-16T00:14:24;34.62;32.45;38.15;;
69609;Laerm;56815;52.320;4.858;2023-05-16T00:14:35;35.66;33.33;39.43;;
69609;Laerm;56815;52.320;4.858;2023-05-16T00:14:46;34.84;31.88;37.28;;
69609;Laerm;56815;52.320;4.858;2023-05-16T00:14:57;35.74;32.94;47.55;;
69609;Laerm;56815;52.320;4.858;2023-05-16T00:15:09;34.68;32.47;37.67;;
69609;Laerm;56815;52.320;4.858;2023-05-16T00:15:21;34.53;32.27;37.13;;
69609;Laerm;56815;52.320;4.858;2023-05-16T00:15:33;34.54;32.12;36.79;;
69609;Laerm;56815;52.320;4.858;2023-05-16T00:15:44;35.01;32.12;38.94;;
69609;Laerm;56815;52.320;4.858;2023-05-16T00:15:54;35.07;32.57;39.81;;
69609;Laerm;56815;52.320;4.858;2023-05-16T00:16:05;34.18;31.98;35.90;;
69609;Laerm;56815;52.320;4.858;2023-05-16T00:16:15;34.78;32.86;37.33;;
69609;Laerm;56815;52.320;4.858;2023-05-16T00:16:26;34.60;32.33;37.42;;
69609;Laerm;56815;52.320;4.858;2023-05-16T00:16:38;34.72;32.39;37.43;;
69609;Laerm;56815;52.320;4.858;2023-05-16T00:16:51;35.18;32.71;40.58;;
69609;Laerm;56815;52.320;4.858;2023-05-16T00:17:02;35.52;33.10;40.90;;
69609;Laerm;56815;52.320;4.858;2023-05-16T00:17:20;35.22;32.26;41.92;;
69609;Laerm;56815;52.320;4.858;2023-05-16T00:17:30;35.11;32.65;41.48;;
69609;Laerm;56815;52.320;4.858;2023-05-16T00:17:41;34.64;32.36;38.54;;
69609;Laerm;56815;52.320;4.858;2023-05-16T00:17:55;35.32;32.28;43.02;;
69609;Laerm;56815;52.320;4.858;2023-05-16T00:18:08;34.79;32.64;37.44;;
69609;Laerm;56815;52.320;4.858;2023-05-16T00:18:18;35.87;32.28;46.68;;
69609;Laerm;56815;52.320;4.858;2023-05-16T00:18:31;34.16;32.09;38.44;;
69609;Laerm;56815;52.320;4.858;2023-05-16T00:18:41;33.80;31.56;39.24;;
69609;Laerm;56815;52.320;4.858;2023-05-16T00:18:54;33.51;31.91;36.83;;
69609;Laerm;56815;52.320;4.858;2023-05-16T00:19:06;34.16;31.87;37.57;;
69609;Laerm;56815;52.320;4.858;2023-05-16T00:19:17;33.42;31.02;35.41;;
69609;Laerm;56815;52.320;4.858;2023-05-16T00:19:27;34.67;32.41;39.69;;
69609;Laerm;56815;52.320;4.858;2023-05-16T00:19:39;35.06;32.68;41.51;;
69609;Laerm;56815;52.320;4.858;2023-05-16T00:19:49;33.97;32.19;37.06;;
69609;Laerm;56815;52.320;4.858;2023-05-16T00:20:07;33.81;31.96;36.46;;
69609;Laerm;56815;52.320;4.858;2023-05-16T00:20:19;33.43;31.48;35.46;;
69609;Laerm;56815;52.320;4.858;2023-05-16T00:20:32;34.19;31.97;38.51;;
69609;Laerm;56815;52.320;4.858;2023-05-16T00:20:43;33.66;31.37;36.07;;
69609;Laerm;56815;52.320;4.858;2023-05-16T00:20:53;34.42;32.04;37.20;;
69609;Laerm;56815;52.320;4.858;2023-05-16T00:21:04;34.68;32.20;38.30;;
69609;Laerm;56815;52.320;4.858;2023-05-16T00:21:15;33.75;31.67;35.99;;
69609;Laerm;56815;52.320;4.858;2023-05-16T00:21:25;34.29;31.81;35.94;;
69609;Laerm;56815;52.320;4.858;2023-05-16T00:21:35;34.34;32.53;37.86;;
69609;Laerm;56815;52.320;4.858;2023-05-16T00:21:46;34.38;32.05;37.17;;
69609;Laerm;56815;52.320;4.858;2023-05-16T00:21:56;34.31;32.32;40.25;;
69609;Laerm;56815;52.320;4.858;2023-05-16T00:22:06;34.82;32.01;38.14;;
69609;Laerm;56815;52.320;4.858;2023-05-16T00:22:16;34.71;31.70;39.06;;
69609;Laerm;56815;52.320;4.858;2023-05-16T00:22:27;34.48;32.15;38.83;;
69609;Laerm;56815;52.320;4.858;2023-05-16T00:22:37;34.66;32.46;40.36;;
69609;Laerm;56815;52.320;4.858;2023-05-16T00:22:48;34.84;32.46;38.82;;
69609;Laerm;56815;52.320;4.858;2023-05-16T00:22:58;35.20;33.38;43.33;;
69609;Laerm;56815;52.320;4.858;2023-05-16T00:23:11;34.78;31.98;37.34;;
69609;Laerm;56815;52.320;4.858;2023-05-16T00:23:22;34.53;32.99;36.84;;
69609;Laerm;56815;52.320;4.858;2023-05-16T00:23:32;34.46;32.23;38.57;;
69609;Laerm;56815;52.320;4.858;2023-05-16T00:23:42;34.74;32.38;41.81;;
69609;Laerm;56815;52.320;4.858;2023-05-16T00:23:53;34.14;32.04;37.96;;
69609;Laerm;56815;52.320;4.858;2023-05-16T00:24:03;34.26;32.13;37.44;;
69609;Laerm;56815;52.320;4.858;2023-05-16T00:24:14;34.23;31.84;36.41;;
69609;Laerm;56815;52.320;4.858;2023-05-16T00:24:24;34.58;32.35;36.73;;
69609;Laerm;56815;52.320;4.858;2023-05-16T00:24:35;34.73;31.93;39.53;;
69609;Laerm;56815;52.320;4.858;2023-05-16T00:24:45;34.39;32.43;38.65;;
69609;Laerm;56815;52.320;4.858;2023-05-16T00:24:55;35.05;32.53;40.76;;
69609;Laerm;56815;52.320;4.858;2023-05-16T00:25:05;34.66;32.11;46.50;;
69609;Laerm;56815;52.320;4.858;2023-05-16T00:25:17;33.82;31.99;36.26;;
69609;Laerm;56815;52.320;4.858;2023-05-16T00:25:28;33.95;31.87;36.76;;
69609;Laerm;56815;52.320;4.858;2023-05-16T00:25:38;34.14;32.12;38.05;;
69609;Laerm;56815;52.320;4.858;2023-05-16T00:25:48;34.85;32.62;40.65;;
69609;Laerm;56815;52.320;4.858;2023-05-16T00:25:58;36.15;33.45;45.30;;
69609;Laerm;56815;52.320;4.858;2023-05-16T00:26:09;36.48;33.27;49.10;;
69609;Laerm;56815;52.320;4.858;2023-05-16T00:26:19;37.99;33.11;55.04;;
69609;Laerm;56815;52.320;4.858;2023-05-16T00:26:30;40.99;32.57;55.05;;
69609;Laerm;56815;52.320;4.858;2023-05-16T00:26:41;34.72;32.75;36.96;;
69609;Laerm;56815;52.320;4.858;2023-05-16T00:26:51;35.25;32.54;39.01;;
69609;Laerm;56815;52.320;4.858;2023-05-16T00:27:01;34.62;32.25;44.37;;
69609;Laerm;56815;52.320;4.858;2023-05-16T00:27:13;34.48;32.29;36.79;;
69609;Laerm;56815;52.320;4.858;2023-05-16T00:27:23;34.74;32.95;37.25;;
69609;Laerm;56815;52.320;4.858;2023-05-16T00:27:34;34.48;31.98;38.89;;
69609;Laerm;56815;52.320;4.858;2023-05-16T00:27:44;34.83;32.62;40.54;;
69609;Laerm;56815;52.320;4.858;2023-05-16T00:27:54;34.68;32.48;38.56;;
69609;Laerm;56815;52.320;4.858;2023-05-16T00:28:05;34.89;32.69;37.81;;
69609;Laerm;56815;52.320;4.858;2023-05-16T00:28:15;35.58;33.07;38.66;;
69609;Laerm;56815;52.320;4.858;2023-05-16T00:28:26;34.66;32.46;36.62;;
69609;Laerm;56815;52.320;4.858;2023-05-16T00:28:36;35.90;32.37;45.67;;
69609;Laerm;56815;52.320;4.858;2023-05-16T00:28:46;36.03;32.42;50.89;;
69609;Laerm;56815;52.320;4.858;2023-05-16T00:28:57;34.00;31.96;37.05;;
69609;Laerm;56815;52.320;4.858;2023-05-16T00:29:07;33.95;32.01;38.63;;
69609;Laerm;56815;52.320;4.858;2023-05-16T00:29:17;41.81;32.08;56.53;;
69609;Laerm;56815;52.320;4.858;2023-05-16T00:29:27;34.22;32.43;36.51;;
69609;Laerm;56815;52.320;4.858;2023-05-16T00:29:38;46.19;31.63;61.57;;
69609;Laerm;56815;52.320;4.858;2023-05-16T00:29:48;33.79;31.44;35.55;;
69609;Laerm;56815;52.320;4.858;2023-05-16T00:29:58;34.13;31.73;39.62;;
69609;Laerm;56815;52.320;4.858;2023-05-16T00:30:08;34.54;31.91;38.82;;
69609;Laerm;56815;52.320;4.858;2023-05-16T00:30:19;33.75;31.55;37.40;;
69609;Laerm;56815;52.320;4.858;2023-05-16T00:30:29;33.90;31.96;36.46;;
69609;Laerm;56815;52.320;4.858;2023-05-16T00:30:40;35.15;33.06;38.55;;
69609;Laerm;56815;52.320;4.858;2023-05-16T00:30:50;34.76;32.13;37.84;;
69609;Laerm;56815;52.320;4.858;2023-05-16T00:31:03;34.23;32.28;37.42;;
69609;Laerm;56815;52.320;4.858;2023-05-16T00:31:13;34.20;32.18;36.41;;
69609;Laerm;56815;52.320;4.858;2023-05-16T00:31:23;34.40;32.48;36.62;;
69609;Laerm;56815;52.320;4.858;2023-05-16T00:31:34;34.36;32.40;36.68;;
69609;Laerm;56815;52.320;4.858;2023-05-16T00:31:44;33.60;31.61;37.96;;
69609;Laerm;56815;52.320;4.858;2023-05-16T00:31:55;33.67;31.74;37.55;;
69609;Laerm;56815;52.320;4.858;2023-05-16T00:32:05;33.05;31.38;35.68;;
69609;Laerm;56815;52.320;4.858;2023-05-16T00:32:17;33.85;31.79;38.10;;
69609;Laerm;56815;52.320;4.858;2023-05-16T00:32:27;34.16;31.88;36.69;;
69609;Laerm;56815;52.320;4.858;2023-05-16T00:32:38;33.52;30.71;36.89;;
69609;Laerm;56815;52.320;4.858;2023-05-16T00:32:48;33.13;31.45;34.98;;
69609;Laerm;56815;52.320;4.858;2023-05-16T00:32:58;33.45;31.14;38.29;;
69609;Laerm;56815;52.320;4.858;2023-05-16T00:33:08;32.86;31.33;34.67;;
69609;Laerm;56815;52.320;4.858;2023-05-16T00:33:19;33.03;30.99;34.79;;
69609;Laerm;56815;52.320;4.858;2023-05-16T00:33:29;33.57;31.08;35.67;;
69609;Laerm;56815;52.320;4.858;2023-05-16T00:33:39;34.30;32.32;36.80;;
69609;Laerm;56815;52.320;4.858;2023-05-16T00:33:50;33.43;31.48;35.18;;
69609;Laerm;56815;52.320;4.858;2023-05-16T00:34:00;34.36;31.56;37.24;;
69609;Laerm;56815;52.320;4.858;2023-05-16T00:34:10;34.04;31.72;38.17;;
69609;Laerm;56815;52.320;4.858;2023-05-16T00:34:23;33.86;31.29;36.32;;
69609;Laerm;56815;52.320;4.858;2023-05-16T00:34:33;34.14;32.23;37.07;;
69609;Laerm;56815;52.320;4.858;2023-05-16T00:34:44;34.66;32.16;38.30;;
69609;Laerm;56815;52.320;4.858;2023-05-16T00:34:54;33.85;31.91;38.29;;
69609;Laerm;56815;52.320;4.858;2023-05-16T00:35:05;35.71;32.98;41.68;;
69609;Laerm;56815;52.320;4.858;2023-05-16T00:35:16;34.86;31.92;38.93;;
69609;Laerm;56815;52.320;4.858;2023-05-16T00:35:26;33.98;31.45;36.47;;
69609;Laerm;56815;52.320;4.858;2023-05-16T00:35:36;33.47;31.12;36.81;;
69609;Laerm;56815;52.320;4.858;2023-05-16T00:35:46;34.48;31.72;37.58;;
69609;Laerm;56815;52.320;4.858;2023-05-16T00:35:57;33.75;31.40;38.25;;
69609;Laerm;56815;52.320;4.858;2023-05-16T00:36:07;33.13;31.72;35.38;;
69609;Laerm;56815;52.320;4.858;2023-05-16T00:36:17;35.09;32.35;42.13;;
69609;Laerm;56815;52.320;4.858;2023-05-16T00:36:28;34.30;31.58;39.30;;
69609;Laerm;56815;52.320;4.858;2023-05-16T00:36:40;34.75;32.79;36.55;;
69609;Laerm;56815;52.320;4.858;2023-05-16T00:36:51;34.75;32.56;37.89;;
69609;Laerm;56815;52.320;4.858;2023-05-16T00:37:01;34.32;32.23;41.04;;
69609;Laerm;56815;52.320;4.858;2023-05-16T00:37:11;34.39;31.40;43.51;;
69609;Laerm;56815;52.320;4.858;2023-05-16T00:37:22;34.38;32.14;39.82;;
69609;Laerm;56815;52.320;4.858;2023-05-16T00:37:32;34.18;32.26;39.39;;
69609;Laerm;56815;52.320;4.858;2023-05-16T00:37:43;34.36;32.13;36.47;;
69609;Laerm;56815;52.320;4.858;2023-05-16T00:37:53;34.21;32.34;38.86;;
69609;Laerm;56815;52.320;4.858;2023-05-16T00:38:03;34.53;32.34;42.74;;
69609;Laerm;56815;52.320;4.858;2023-05-16T00:38:13;36.36;32.15;41.43;;
69609;Laerm;56815;52.320;4.858;2023-05-16T00:38:24;38.76;35.24;47.10;;
69609;Laerm;56815;52.320;4.858;2023-05-16T00:38:35;42.07;35.36;49.22;;
69609;Laerm;56815;52.320;4.858;2023-05-16T00:38:45;41.48;35.45;48.31;;
69609;Laerm;56815;52.320;4.858;2023-05-16T00:38:55;43.22;35.96;57.77;;
69609;Laerm;56815;52.320;4.858;2023-05-16T00:39:06;40.99;35.37;53.74;;
69609;Laerm;56815;52.320;4.858;2023-05-16T00:39:16;39.27;34.93;44.82;;
69609;Laerm;56815;52.320;4.858;2023-05-16T00:39:27;36.85;34.25;41.00;;
69609;Laerm;56815;52.320;4.858;2023-05-16T00:39:37;36.97;33.12;48.93;;
69609;Laerm;56815;52.320;4.858;2023-05-16T00:39:48;35.61;33.00;40.00;;
69609;Laerm;56815;52.320;4.858;2023-05-16T00:39:58;34.92;32.71;37.86;;
69609;Laerm;56815;52.320;4.858;2023-05-16T00:40:08;34.46;32.34;36.37;;
69609;Laerm;56815;52.320;4.858;2023-05-16T00:40:19;34.53;32.36;36.54;;
69609;Laerm;56815;52.320;4.858;2023-05-16T00:40:29;34.14;32.12;36.75;;
69609;Laerm;56815;52.320;4.858;2023-05-16T00:40:39;34.67;32.33;39.29;;
69609;Laerm;56815;52.320;4.858;2023-05-16T00:40:50;34.42;31.52;36.49;;
69609;Laerm;56815;52.320;4.858;2023-05-16T00:41:00;34.80;32.07;36.84;;
69609;Laerm;56815;52.320;4.858;2023-05-16T00:41:10;34.88;32.35;37.15;;
69609;Laerm;56815;52.320;4.858;2023-05-16T00:41:21;35.42;32.48;43.66;;
69609;Laerm;56815;52.320;4.858;2023-05-16T00:41:32;33.91;31.58;35.83;;
69609;Laerm;56815;52.320;4.858;2023-05-16T00:41:43;34.42;32.17;37.10;;
69609;Laerm;56815;52.320;4.858;2023-05-16T00:41:53;33.59;31.48;38.15;;
69609;Laerm;56815;52.320;4.858;2023-05-16T00:42:03;33.72;31.93;39.26;;
69609;Laerm;56815;52.320;4.858;2023-05-16T00:42:14;34.58;32.07;45.85;;
69609;Laerm;56815;52.320;4.858;2023-05-16T00:42:24;33.86;31.90;35.85;;
69609;Laerm;56815;52.320;4.858;2023-05-16T00:42:35;33.57;31.26;38.78;;
69609;Laerm;56815;52.320;4.858;2023-05-16T00:42:46;33.45;31.69;36.45;;
69609;Laerm;56815;52.320;4.858;2023-05-16T00:42:56;34.44;31.82;39.36;;
69609;Laerm;56815;52.320;4.858;2023-05-16T00:43:07;34.28;32.60;37.51;;
69609;Laerm;56815;52.320;4.858;2023-05-16T00:43:17;33.99;31.98;36.57;;
69609;Laerm;56815;52.320;4.858;2023-05-16T00:43:27;33.67;31.65;35.41;;
69609;Laerm;56815;52.320;4.858;2023-05-16T00:43:38;34.69;32.14;38.32;;
69609;Laerm;56815;52.320;4.858;2023-05-16T00:43:48;34.36;31.81;39.36;;
69609;Laerm;56815;52.320;4.858;2023-05-16T00:43:59;34.42;31.71;36.91;;
69609;Laerm;56815;52.320;4.858;2023-05-16T00:44:09;33.96;31.69;38.10;;
69609;Laerm;56815;52.320;4.858;2023-05-16T00:44:19;34.46;32.06;37.92;;
69609;Laerm;56815;52.320;4.858;2023-05-16T00:44:30;34.70;32.87;37.15;;
69609;Laerm;56815;52.320;4.858;2023-05-16T00:44:40;35.11;32.45;40.31;;
69609;Laerm;56815;52.320;4.858;2023-05-16T00:44:51;34.48;32.27;37.34;;
69609;Laerm;56815;52.320;4.858;2023-05-16T00:45:01;34.42;32.29;36.39;;
69609;Laerm;56815;52.320;4.858;2023-05-16T00:45:11;34.67;32.61;38.70;;
69609;Laerm;56815;52.320;4.858;2023-05-16T00:45:22;33.70;31.67;36.84;;
69609;Laerm;56815;52.320;4.858;2023-05-16T00:45:32;34.33;32.15;37.60;;
69609;Laerm;56815;52.320;4.858;2023-05-16T00:45:42;34.67;32.28;37.48;;
69609;Laerm;56815;52.320;4.858;2023-05-16T00:45:53;33.91;31.92;37.86;;
69609;Laerm;56815;52.320;4.858;2023-05-16T00:46:03;33.61;31.94;35.51;;
69609;Laerm;56815;52.320;4.858;2023-05-16T00:46:14;33.25;31.63;35.00;;
69609;Laerm;56815;52.320;4.858;2023-05-16T00:46:24;33.55;31.06;35.51;;
69609;Laerm;56815;52.320;4.858;2023-05-16T00:46:34;33.84;31.89;36.59;;
69609;Laerm;56815;52.320;4.858;2023-05-16T00:46:45;33.88;31.61;36.00;;
69609;Laerm;56815;52.320;4.858;2023-05-16T00:46:55;34.21;31.80;39.03;;
69609;Laerm;56815;52.320;4.858;2023-05-16T00:47:06;34.63;32.33;39.91;;
69609;Laerm;56815;52.320;4.858;2023-05-16T00:47:17;34.08;31.53;40.56;;
69609;Laerm;56815;52.320;4.858;2023-05-16T00:47:27;33.73;31.72;35.64;;
69609;Laerm;56815;52.320;4.858;2023-05-16T00:47:37;33.62;31.52;40.01;;
69609;Laerm;56815;52.320;4.858;2023-05-16T00:47:48;33.11;31.33;35.60;;
69609;Laerm;56815;52.320;4.858;2023-05-16T00:47:58;33.12;31.23;37.80;;
69609;Laerm;56815;52.320;4.858;2023-05-16T00:48:09;33.26;31.47;34.81;;
69609;Laerm;56815;52.320;4.858;2023-05-16T00:48:20;34.18;31.62;37.16;;
69609;Laerm;56815;52.320;4.858;2023-05-16T00:48:31;33.21;30.61;36.05;;
69609;Laerm;56815;52.320;4.858;2023-05-16T00:48:41;33.62;30.72;36.82;;
69609;Laerm;56815;52.320;4.858;2023-05-16T00:48:51;33.92;30.94;46.37;;
69609;Laerm;56815;52.320;4.858;2023-05-16T00:49:02;33.85;31.64;40.47;;
69609;Laerm;56815;52.320;4.858;2023-05-16T00:49:14;33.68;31.50;36.37;;
69609;Laerm;56815;52.320;4.858;2023-05-16T00:49:24;34.35;32.25;37.02;;
69609;Laerm;56815;52.320;4.858;2023-05-16T00:49:34;34.51;32.22;36.87;;
69609;Laerm;56815;52.320;4.858;2023-05-16T00:49:44;33.74;31.61;36.58;;
69609;Laerm;56815;52.320;4.858;2023-05-16T00:49:55;33.44;30.71;36.38;;
69609;Laerm;56815;52.320;4.858;2023-05-16T00:50:05;34.08;31.70;37.84;;
69609;Laerm;56815;52.320;4.858;2023-05-16T00:50:16;34.06;30.83;37.88;;
69609;Laerm;56815;52.320;4.858;2023-05-16T00:50:27;33.26;31.18;36.89;;
69609;Laerm;56815;52.320;4.858;2023-05-16T00:50:37;33.66;31.70;35.67;;
69609;Laerm;56815;52.320;4.858;2023-05-16T00:50:47;34.11;31.69;37.36;;
69609;Laerm;56815;52.320;4.858;2023-05-16T00:50:58;33.32;31.18;35.89;;
69609;Laerm;56815;52.320;4.858;2023-05-16T00:51:09;33.05;30.39;35.81;;
69609;Laerm;56815;52.320;4.858;2023-05-16T00:51:19;33.16;31.07;35.68;;
69609;Laerm;56815;52.320;4.858;2023-05-16T00:51:30;32.95;31.12;35.37;;
69609;Laerm;56815;52.320;4.858;2023-05-16T00:51:40;33.37;31.68;35.86;;
69609;Laerm;56815;52.320;4.858;2023-05-16T00:51:50;32.97;30.67;35.39;;
69609;Laerm;56815;52.320;4.858;2023-05-16T00:52:01;33.97;31.56;38.41;;
69609;Laerm;56815;52.320;4.858;2023-05-16T00:52:15;33.97;31.19;36.55;;
69609;Laerm;56815;52.320;4.858;2023-05-16T00:52:25;33.74;31.59;36.02;;
69609;Laerm;56815;52.320;4.858;2023-05-16T00:52:36;34.69;31.75;36.70;;
69609;Laerm;56815;52.320;4.858;2023-05-16T00:52:46;35.24;32.86;37.65;;
69609;Laerm;56815;52.320;4.858;2023-05-16T00:52:57;34.78;32.56;37.97;;
69609;Laerm;56815;52.320;4.858;2023-05-16T00:53:07;34.26;32.17;39.97;;
69609;Laerm;56815;52.320;4.858;2023-05-16T00:53:18;35.49;32.46;49.25;;
69609;Laerm;56815;52.320;4.858;2023-05-16T00:53:28;37.12;32.83;55.06;;
69609;Laerm;56815;52.320;4.858;2023-05-16T00:53:39;34.36;32.30;36.95;;
69609;Laerm;56815;52.320;4.858;2023-05-16T00:53:49;35.13;32.70;37.98;;
69609;Laerm;56815;52.320;4.858;2023-05-16T00:54:00;35.00;32.73;39.00;;
69609;Laerm;56815;52.320;4.858;2023-05-16T00:54:11;34.66;32.26;40.31;;
69609;Laerm;56815;52.320;4.858;2023-05-16T00:54:21;34.40;32.59;36.88;;
69609;Laerm;56815;52.320;4.858;2023-05-16T00:54:32;34.13;32.05;36.94;;
69609;Laerm;56815;52.320;4.858;2023-05-16T00:54:43;34.79;32.78;36.66;;
69609;Laerm;56815;52.320;4.858;2023-05-16T00:54:53;34.36;32.14;37.94;;
69609;Laerm;56815;52.320;4.858;2023-05-16T00:55:03;34.22;32.28;37.73;;
69609;Laerm;56815;52.320;4.858;2023-05-16T00:55:14;34.14;32.27;35.65;;
69609;Laerm;56815;52.320;4.858;2023-05-16T00:55:25;34.72;32.41;37.46;;
69609;Laerm;56815;52.320;4.858;2023-05-16T00:55:36;34.68;32.20;39.38;;
69609;Laerm;56815;52.320;4.858;2023-05-16T00:55:46;35.01;32.50;37.54;;
69609;Laerm;56815;52.320;4.858;2023-05-16T00:55:57;34.69;32.71;36.77;;
69609;Laerm;56815;52.320;4.858;2023-05-16T00:56:09;34.67;32.28;41.36;;
69609;Laerm;56815;52.320;4.858;2023-05-16T00:56:19;34.88;32.02;39.27;;
69609;Laerm;56815;52.320;4.858;2023-05-16T00:56:30;33.78;31.60;39.08;;
69609;Laerm;56815;52.320;4.858;2023-05-16T00:56:41;34.53;32.25;43.43;;
69609;Laerm;56815;52.320;4.858;2023-05-16T00:56:52;33.94;32.09;35.62;;
69609;Laerm;56815;52.320;4.858;2023-05-16T00:57:02;34.03;32.14;36.71;;
69609;Laerm;56815;52.320;4.858;2023-05-16T00:57:14;34.06;31.71;40.39;;
69609;Laerm;56815;52.320;4.858;2023-05-16T00:57:25;34.16;32.08;37.27;;
69609;Laerm;56815;52.320;4.858;2023-05-16T00:57:36;34.45;31.90;38.67;;
69609;Laerm;56815;52.320;4.858;2023-05-16T00:57:46;35.21;32.75;42.69;;
69609;Laerm;56815;52.320;4.858;2023-05-16T00:57:56;34.80;32.16;39.22;;
69609;Laerm;56815;52.320;4.858;2023-05-16T00:58:08;34.03;31.66;38.88;;
69609;Laerm;56815;52.320;4.858;2023-05-16T00:58:20;33.87;31.39;38.89;;
69609;Laerm;56815;52.320;4.858;2023-05-16T00:58:30;34.12;31.61;37.51;;
69609;Laerm;56815;52.320;4.858;2023-05-16T00:58:42;34.59;31.58;40.15;;
69609;Laerm;56815;52.320;4.858;2023-05-16T00:58:53;33.86;31.59;35.82;;
69609;Laerm;56815;52.320;4.858;2023-05-16T00:59:03;34.00;32.15;36.09;;
69609;Laerm;56815;52.320;4.858;2023-05-16T00:59:16;34.09;31.47;37.55;;
69609;Laerm;56815;52.320;4.858;2023-05-16T00:59:26;35.07;32.68;39.10;;
69609;Laerm;56815;52.320;4.858;2023-05-16T00:59:37;43.74;32.36;54.49;;
69609;Laerm;56815;52.320;4.858;2023-05-16T00:59:47;34.21;31.70;37.04;;
69609;Laerm;56815;52.320;4.858;2023-05-16T00:59:58;33.39;31.81;36.01;;